sensor_id;sensor_type;location;lat;lon;timestamp;pressure;altitude;pressure_sealevel;temperature;humidity
49979;BME280;35869;50.990;6.962;2023-05-02T00:03:57;101550.00;;;10.75;96.73
49979;BME280;35869;50.990;6.962;2023-05-02T00:08:57;101552.53;;;10.76;95.58
49979;BME280;35869;50.990;6.962;2023-05-02T00:13:58;101562.88;;;10.78;93.68
49979;BME280;35869;50.990;6.962;2023-05-02T00:18:58;101557.66;;;10.78;95.32
49979;BME280;35869;50.990;6.962;2023-05-02T00:23:58;101562.03;;;10.77;96.74
49979;BME280;35869;50.990;6.962;2023-05-02T00:28:58;101562.34;;;10.68;98.85
49979;BME280;35869;50.990;6.962;2023-05-02T00:33:59;101564.75;;;10.74;98.35
49979;BME280;35869;50.990;6.962;2023-05-02T00:38:59;101574.31;;;10.72;96.54
49979;BME280;35869;50.990;6.962;2023-05-02T00:43:59;101583.88;;;10.72;97.58
49979;BME280;35869;50.990;6.962;2023-05-02T00:49:00;101589.97;;;10.71;98.85
49979;BME280;35869;50.990;6.962;2023-05-02T00:54:00;101600.47;;;10.67;98.74
49979;BME280;35869;50.990;6.962;2023-05-02T00:59:01;101605.72;;;10.66;97.35
49979;BME280;35869;50.990;6.962;2023-05-02T01:04:22;101598.69;;;10.70;98.65
49979;BME280;35869;50.990;6.962;2023-05-02T01:14:37;101612.78;;;10.62;99.64
49979;BME280;35869;50.990;6.962;2023-05-02T01:19:43;101621.50;;;10.60;100.00
49979;BME280;35869;50.990;6.962;2023-05-02T01:30:25;101629.94;;;10.66;96.95
49979;BME280;35869;50.990;6.962;2023-05-02T01:35:26;101633.56;;;10.62;99.23
49979;BME280;35869;50.990;6.962;2023-05-02T01:40:29;101649.19;;;10.61;99.75
49979;BME280;35869;50.990;6.962;2023-05-02T01:45:34;101646.81;;;10.53;100.00
49979;BME280;35869;50.990;6.962;2023-05-02T01:50:36;101639.75;;;10.58;100.00
49979;BME280;35869;50.990;6.962;2023-05-02T01:55:40;101643.19;;;10.59;99.85
49979;BME280;35869;50.990;6.962;2023-05-02T02:00:43;101657.94;;;10.58;98.12
49979;BME280;35869;50.990;6.962;2023-05-02T02:05:46;101665.91;;;10.52;98.78
49979;BME280;35869;50.990;6.962;2023-05-02T02:10:53;101666.81;;;10.51;99.58
49979;BME280;35869;50.990;6.962;2023-05-02T02:15:58;101674.66;;;10.50;99.11
49979;BME280;35869;50.990;6.962;2023-05-02T02:20:59;101688.53;;;10.49;99.38
49979;BME280;35869;50.990;6.962;2023-05-02T02:26:01;101684.28;;;10.46;100.00
49979;BME280;35869;50.990;6.962;2023-05-02T02:31:01;101685.25;;;10.42;100.00
49979;BME280;35869;50.990;6.962;2023-05-02T02:36:14;101685.19;;;10.45;100.00
49979;BME280;35869;50.990;6.962;2023-05-02T02:41:22;101694.75;;;10.43;100.00
49979;BME280;35869;50.990;6.962;2023-05-02T02:51:38;101703.28;;;10.48;100.00
49979;BME280;35869;50.990;6.962;2023-05-02T02:56:45;101712.78;;;10.49;100.00
49979;BME280;35869;50.990;6.962;2023-05-02T03:01:55;101713.69;;;10.48;100.00
49979;BME280;35869;50.990;6.962;2023-05-02T03:06:59;101710.28;;;10.46;100.00
49979;BME280;35869;50.990;6.962;2023-05-02T03:11:59;101713.69;;;10.48;100.00
49979;BME280;35869;50.990;6.962;2023-05-02T03:16:59;101716.31;;;10.47;100.00
49979;BME280;35869;50.990;6.962;2023-05-02T03:21:59;101727.56;;;10.47;100.00
49979;BME280;35869;50.990;6.962;2023-05-02T03:27:00;101721.34;;;10.53;100.00
49979;BME280;35869;50.990;6.962;2023-05-02T03:32:00;101721.44;;;10.50;100.00
49979;BME280;35869;50.990;6.962;2023-05-02T03:37:00;101725.66;;;10.54;100.00
49979;BME280;35869;50.990;6.962;2023-05-02T03:42:00;101739.50;;;10.54;98.85
49979;BME280;35869;50.990;6.962;2023-05-02T03:47:00;101740.41;;;10.53;100.00
49979;BME280;35869;50.990;6.962;2023-05-02T03:52:00;101742.09;;;10.54;100.00
49979;BME280;35869;50.990;6.962;2023-05-02T03:57:01;101737.91;;;10.50;100.00
49979;BME280;35869;50.990;6.962;2023-05-02T04:02:01;101746.50;;;10.52;100.00
49979;BME280;35869;50.990;6.962;2023-05-02T04:07:01;101742.03;;;10.57;100.00
49979;BME280;35869;50.990;6.962;2023-05-02T04:12:02;101753.28;;;10.58;100.00
49979;BME280;35869;50.990;6.962;2023-05-02T04:17:02;101755.03;;;10.57;100.00
49979;BME280;35869;50.990;6.962;2023-05-02T04:22:02;101753.31;;;10.56;100.00
49979;BME280;35869;50.990;6.962;2023-05-02T04:27:02;101760.91;;;10.64;100.00
49979;BME280;35869;50.990;6.962;2023-05-02T04:32:03;101764.44;;;10.61;100.00
49979;BME280;35869;50.990;6.962;2023-05-02T04:37:03;101777.41;;;10.63;100.00
49979;BME280;35869;50.990;6.962;2023-05-02T04:42:03;101790.34;;;10.64;100.00
49979;BME280;35869;50.990;6.962;2023-05-02T04:47:03;101798.16;;;10.64;100.00
49979;BME280;35869;50.990;6.962;2023-05-02T04:52:04;101792.09;;;10.64;100.00
49979;BME280;35869;50.990;6.962;2023-05-02T04:57:04;101803.28;;;10.67;100.00
49979;BME280;35869;50.990;6.962;2023-05-02T05:02:16;101805.09;;;10.64;100.00
49979;BME280;35869;50.990;6.962;2023-05-02T05:13:06;101826.56;;;10.71;100.00
49979;BME280;35869;50.990;6.962;2023-05-02T05:18:06;101833.59;;;10.68;100.00
49979;BME280;35869;50.990;6.962;2023-05-02T05:23:06;101839.41;;;10.77;98.41
49979;BME280;35869;50.990;6.962;2023-05-02T05:28:06;101838.66;;;10.73;100.00
49979;BME280;35869;50.990;6.962;2023-05-02T05:33:06;101843.81;;;10.75;100.00
49979;BME280;35869;50.990;6.962;2023-05-02T05:38:07;101854.16;;;10.76;100.00
49979;BME280;35869;50.990;6.962;2023-05-02T05:43:07;101858.41;;;10.79;100.00
49979;BME280;35869;50.990;6.962;2023-05-02T05:48:07;101870.63;;;10.77;100.00
49979;BME280;35869;50.990;6.962;2023-05-02T05:53:07;101872.25;;;10.81;100.00
49979;BME280;35869;50.990;6.962;2023-05-02T05:58:08;101871.31;;;10.83;100.00
49979;BME280;35869;50.990;6.962;2023-05-02T06:03:08;101884.28;;;10.85;100.00
49979;BME280;35869;50.990;6.962;2023-05-02T06:08:08;101886.91;;;10.83;100.00
49979;BME280;35869;50.990;6.962;2023-05-02T06:13:08;101900.84;;;10.81;100.00
49979;BME280;35869;50.990;6.962;2023-05-02T06:18:08;101897.31;;;10.83;100.00
49979;BME280;35869;50.990;6.962;2023-05-02T06:23:09;101900.75;;;10.85;100.00
49979;BME280;35869;50.990;6.962;2023-05-02T06:28:09;101907.69;;;10.85;100.00
49979;BME280;35869;50.990;6.962;2023-05-02T06:33:09;101917.09;;;10.89;100.00
49979;BME280;35869;50.990;6.962;2023-05-02T06:38:09;101929.16;;;10.93;100.00
49979;BME280;35869;50.990;6.962;2023-05-02T06:43:12;101931.00;;;10.88;100.00
49979;BME280;35869;50.990;6.962;2023-05-02T06:48:13;101937.88;;;10.90;100.00
49979;BME280;35869;50.990;6.962;2023-05-02T06:53:13;101945.75;;;10.87;100.00
49979;BME280;35869;50.990;6.962;2023-05-02T06:58:13;101957.00;;;10.88;100.00
49979;BME280;35869;50.990;6.962;2023-05-02T07:03:13;101962.06;;;10.94;100.00
49979;BME280;35869;50.990;6.962;2023-05-02T07:08:14;101969.00;;;10.93;100.00
49979;BME280;35869;50.990;6.962;2023-05-02T07:13:14;101977.59;;;10.97;100.00
49979;BME280;35869;50.990;6.962;2023-05-02T07:18:14;101985.47;;;10.94;100.00
49979;BME280;35869;50.990;6.962;2023-05-02T07:23:15;101992.19;;;11.03;100.00
49979;BME280;35869;50.990;6.962;2023-05-02T07:28:15;102001.03;;;10.95;100.00
49979;BME280;35869;50.990;6.962;2023-05-02T07:33:16;102009.47;;;11.05;100.00
49979;BME280;35869;50.990;6.962;2023-05-02T07:38:26;102015.72;;;10.98;100.00
49979;BME280;35869;50.990;6.962;2023-05-02T07:43:27;102016.63;;;10.97;100.00
49979;BME280;35869;50.990;6.962;2023-05-02T07:48:27;102025.34;;;10.94;100.00
49979;BME280;35869;50.990;6.962;2023-05-02T07:53:27;102027.19;;;10.91;100.00
49979;BME280;35869;50.990;6.962;2023-05-02T07:58:27;102031.09;;;11.07;100.00
49979;BME280;35869;50.990;6.962;2023-05-02T08:03:30;102028.47;;;11.07;100.00
49979;BME280;35869;50.990;6.962;2023-05-02T08:08:30;102034.28;;;11.18;98.72
49979;BME280;35869;50.990;6.962;2023-05-02T08:13:31;102037.78;;;11.17;100.00
49979;BME280;35869;50.990;6.962;2023-05-02T08:18:31;102038.56;;;11.19;97.96
49979;BME280;35869;50.990;6.962;2023-05-02T08:23:31;102048.81;;;11.26;97.92
49979;BME280;35869;50.990;6.962;2023-05-02T08:28:31;102050.47;;;11.30;99.69
49979;BME280;35869;50.990;6.962;2023-05-02T08:33:32;102060.75;;;11.34;99.11
49979;BME280;35869;50.990;6.962;2023-05-02T08:38:32;102066.94;;;11.30;100.00
49979;BME280;35869;50.990;6.962;2023-05-02T08:43:32;102070.47;;;11.28;100.00
49979;BME280;35869;50.990;6.962;2023-05-02T08:48:35;102083.25;;;11.37;97.29
49979;BME280;35869;50.990;6.962;2023-05-02T08:53:37;102079.44;;;11.50;97.09
49979;BME280;35869;50.990;6.962;2023-05-02T08:58:39;102088.53;;;11.34;95.86
49979;BME280;35869;50.990;6.962;2023-05-02T09:03:42;102097.06;;;11.40;95.80
49979;BME280;35869;50.990;6.962;2023-05-02T09:08:44;102111.88;;;11.37;93.16
49979;BME280;35869;50.990;6.962;2023-05-02T09:13:46;102114.03;;;11.19;95.50
49979;BME280;35869;50.990;6.962;2023-05-02T09:18:57;102119.03;;;11.29;93.05
49979;BME280;35869;50.990;6.962;2023-05-02T09:23:57;102136.41;;;11.28;94.44
49979;BME280;35869;50.990;6.962;2023-05-02T09:28:59;102146.91;;;11.24;93.34
49979;BME280;35869;50.990;6.962;2023-05-02T09:34:14;102145.50;;;11.10;92.97
49979;BME280;35869;50.990;6.962;2023-05-02T09:39:17;102157.13;;;11.33;93.38
49979;BME280;35869;50.990;6.962;2023-05-02T09:44:20;102153.63;;;11.34;93.04
49979;BME280;35869;50.990;6.962;2023-05-02T09:49:39;102167.53;;;11.33;92.99
49979;BME280;35869;50.990;6.962;2023-05-02T09:54:39;102174.44;;;11.34;94.21
49979;BME280;35869;50.990;6.962;2023-05-02T09:59:40;102177.41;;;11.18;94.19
49979;BME280;35869;50.990;6.962;2023-05-02T10:04:41;102180.66;;;11.28;93.75
49979;BME280;35869;50.990;6.962;2023-05-02T10:09:43;102181.50;;;11.29;92.36
49979;BME280;35869;50.990;6.962;2023-05-02T10:14:49;102175.09;;;11.43;89.56
49979;BME280;35869;50.990;6.962;2023-05-02T10:19:56;102181.00;;;11.50;91.71
49979;BME280;35869;50.990;6.962;2023-05-02T10:25:00;102183.44;;;11.56;91.42
49979;BME280;35869;50.990;6.962;2023-05-02T10:30:01;102186.75;;;11.63;88.37
49979;BME280;35869;50.990;6.962;2023-05-02T10:35:03;102184.84;;;11.69;88.79
49979;BME280;35869;50.990;6.962;2023-05-02T10:40:05;102187.16;;;11.82;86.49
49979;BME280;35869;50.990;6.962;2023-05-02T10:45:28;102198.03;;;11.97;86.00
49979;BME280;35869;50.990;6.962;2023-05-02T10:50:46;102192.38;;;11.80;89.81
49979;BME280;35869;50.990;6.962;2023-05-02T11:06:25;102193.22;;;11.82;84.17
49979;BME280;35869;50.990;6.962;2023-05-02T11:11:46;102191.56;;;12.12;85.40
49979;BME280;35869;50.990;6.962;2023-05-02T11:37:58;102184.50;;;12.76;83.13
49979;BME280;35869;50.990;6.962;2023-05-02T11:42:59;102177.97;;;12.91;80.68
49979;BME280;35869;50.990;6.962;2023-05-02T11:47:59;102193.72;;;13.16;79.99
49979;BME280;35869;50.990;6.962;2023-05-02T11:53:00;102186.25;;;13.33;73.45
49979;BME280;35869;50.990;6.962;2023-05-02T11:58:00;102184.72;;;13.26;80.51
49979;BME280;35869;50.990;6.962;2023-05-02T12:03:00;102196.56;;;13.37;77.65
49979;BME280;35869;50.990;6.962;2023-05-02T12:08:00;102200.66;;;13.45;77.06
49979;BME280;35869;50.990;6.962;2023-05-02T12:13:04;102211.00;;;13.48;77.79
49979;BME280;35869;50.990;6.962;2023-05-02T12:18:05;102217.25;;;13.44;77.15
49979;BME280;35869;50.990;6.962;2023-05-02T12:23:05;102212.13;;;13.93;72.09
49979;BME280;35869;50.990;6.962;2023-05-02T12:28:08;102218.97;;;13.97;70.07
49979;BME280;35869;50.990;6.962;2023-05-02T12:39:06;102224.34;;;14.17;68.48
49979;BME280;35869;50.990;6.962;2023-05-02T12:44:14;102231.44;;;14.38;70.24
49979;BME280;35869;50.990;6.962;2023-05-02T12:49:14;102228.63;;;14.68;65.16
49979;BME280;35869;50.990;6.962;2023-05-02T12:54:21;102238.56;;;14.58;69.72
49979;BME280;35869;50.990;6.962;2023-05-02T12:59:42;102241.25;;;14.32;71.20
49979;BME280;35869;50.990;6.962;2023-05-02T13:04:42;102241.34;;;14.77;64.13
49979;BME280;35869;50.990;6.962;2023-05-02T13:09:44;102246.88;;;14.70;66.34
49979;BME280;35869;50.990;6.962;2023-05-02T13:14:45;102256.63;;;14.66;71.76
49979;BME280;35869;50.990;6.962;2023-05-02T13:19:45;102244.72;;;14.81;66.92
49979;BME280;35869;50.990;6.962;2023-05-02T13:24:52;102245.28;;;14.89;69.92
49979;BME280;35869;50.990;6.962;2023-05-02T13:29:54;102255.56;;;14.72;67.50
49979;BME280;35869;50.990;6.962;2023-05-02T13:35:07;102255.72;;;14.90;68.07
49979;BME280;35869;50.990;6.962;2023-05-02T13:40:08;102261.81;;;14.68;68.52
49979;BME280;35869;50.990;6.962;2023-05-02T13:45:08;102264.03;;;15.02;67.54
49979;BME280;35869;50.990;6.962;2023-05-02T13:50:09;102269.06;;;14.83;70.72
49979;BME280;35869;50.990;6.962;2023-05-02T13:55:09;102266.91;;;14.46;67.18
49979;BME280;35869;50.990;6.962;2023-05-02T14:00:10;102262.03;;;14.61;65.36
49979;BME280;35869;50.990;6.962;2023-05-02T14:05:10;102267.31;;;14.60;64.27
49979;BME280;35869;50.990;6.962;2023-05-02T14:10:10;102264.53;;;14.64;65.30
49979;BME280;35869;50.990;6.962;2023-05-02T14:15:11;102279.47;;;14.36;64.38
49979;BME280;35869;50.990;6.962;2023-05-02T14:20:11;102265.09;;;14.73;63.79
49979;BME280;35869;50.990;6.962;2023-05-02T14:25:11;102279.50;;;15.08;61.14
49979;BME280;35869;50.990;6.962;2023-05-02T14:30:11;102271.91;;;15.00;65.51
49979;BME280;35869;50.990;6.962;2023-05-02T14:35:11;102278.69;;;14.59;63.25
49979;BME280;35869;50.990;6.962;2023-05-02T14:40:12;102279.97;;;14.72;64.32
49979;BME280;35869;50.990;6.962;2023-05-02T14:45:12;102277.03;;;14.56;63.91
49979;BME280;35869;50.990;6.962;2023-05-02T14:50:12;102270.59;;;14.65;62.29
49979;BME280;35869;50.990;6.962;2023-05-02T14:55:13;102267.53;;;15.01;57.86
49979;BME280;35869;50.990;6.962;2023-05-02T15:00:13;102257.06;;;14.77;56.98
49979;BME280;35869;50.990;6.962;2023-05-02T15:05:14;102259.91;;;14.94;56.70
49979;BME280;35869;50.990;6.962;2023-05-02T15:10:14;102261.63;;;14.96;52.28
49979;BME280;35869;50.990;6.962;2023-05-02T15:15:14;102251.72;;;15.04;58.86
49979;BME280;35869;50.990;6.962;2023-05-02T15:20:14;102256.66;;;14.88;60.02
49979;BME280;35869;50.990;6.962;2023-05-02T15:25:14;102251.16;;;14.96;60.58
49979;BME280;35869;50.990;6.962;2023-05-02T15:30:15;102253.09;;;14.90;56.99
49979;BME280;35869;50.990;6.962;2023-05-02T15:35:15;102260.81;;;14.47;61.22
49979;BME280;35869;50.990;6.962;2023-05-02T15:40:15;102254.34;;;14.80;57.00
49979;BME280;35869;50.990;6.962;2023-05-02T15:45:15;102254.44;;;14.77;54.60
49979;BME280;35869;50.990;6.962;2023-05-02T15:50:16;102265.16;;;14.71;62.56
49979;BME280;35869;50.990;6.962;2023-05-02T15:55:16;102268.75;;;14.69;54.65
49979;BME280;35869;50.990;6.962;2023-05-02T16:00:16;102274.97;;;14.64;57.26
49979;BME280;35869;50.990;6.962;2023-05-02T16:05:16;102280.53;;;14.30;60.06
49979;BME280;35869;50.990;6.962;2023-05-02T16:10:16;102272.59;;;14.58;55.63
49979;BME280;35869;50.990;6.962;2023-05-02T16:15:17;102268.97;;;14.37;62.37
49979;BME280;35869;50.990;6.962;2023-05-02T16:20:17;102280.53;;;14.30;57.62
49979;BME280;35869;50.990;6.962;2023-05-02T16:25:17;102280.59;;;14.29;59.98
49979;BME280;35869;50.990;6.962;2023-05-02T16:30:18;102285.81;;;14.04;60.97
49979;BME280;35869;50.990;6.962;2023-05-02T16:35:18;102281.91;;;13.91;60.18
49979;BME280;35869;50.990;6.962;2023-05-02T16:40:18;102286.31;;;13.88;60.04
49979;BME280;35869;50.990;6.962;2023-05-02T16:45:19;102291.22;;;13.71;56.75
49979;BME280;35869;50.990;6.962;2023-05-02T16:50:19;102287.75;;;13.72;61.27
49979;BME280;35869;50.990;6.962;2023-05-02T16:55:19;102277.81;;;13.82;59.51
49979;BME280;35869;50.990;6.962;2023-05-02T17:00:19;102283.56;;;13.67;62.73
49979;BME280;35869;50.990;6.962;2023-05-02T17:05:19;102285.69;;;13.54;59.28
49979;BME280;35869;50.990;6.962;2023-05-02T17:10:20;102288.94;;;13.34;56.06
49979;BME280;35869;50.990;6.962;2023-05-02T17:15:21;102282.22;;;13.53;55.17
49979;BME280;35869;50.990;6.962;2023-05-02T17:20:21;102293.31;;;13.33;58.77
49979;BME280;35869;50.990;6.962;2023-05-02T17:25:21;102292.22;;;13.41;55.95
49979;BME280;35869;50.990;6.962;2023-05-02T17:30:22;102292.59;;;13.28;57.51
49979;BME280;35869;50.990;6.962;2023-05-02T17:35:22;102288.81;;;13.39;56.65
49979;BME280;35869;50.990;6.962;2023-05-02T17:40:22;102295.38;;;13.22;57.99
49979;BME280;35869;50.990;6.962;2023-05-02T17:45:22;102297.03;;;13.25;57.02
49979;BME280;35869;50.990;6.962;2023-05-02T17:50:22;102287.63;;;13.19;53.85
49979;BME280;35869;50.990;6.962;2023-05-02T17:55:23;102295.09;;;13.02;63.27
49979;BME280;35869;50.990;6.962;2023-05-02T18:00:24;102292.56;;;12.99;58.30
49979;BME280;35869;50.990;6.962;2023-05-02T18:05:24;102301.34;;;12.96;57.53
49979;BME280;35869;50.990;6.962;2023-05-02T18:10:24;102308.81;;;12.77;58.00
49979;BME280;35869;50.990;6.962;2023-05-02T18:15:24;102306.50;;;12.68;57.54
49979;BME280;35869;50.990;6.962;2023-05-02T18:20:24;102309.31;;;12.61;56.54
49979;BME280;35869;50.990;6.962;2023-05-02T18:25:25;102310.06;;;12.64;58.82
49979;BME280;35869;50.990;6.962;2023-05-02T18:30:25;102317.94;;;12.63;57.85
49979;BME280;35869;50.990;6.962;2023-05-02T18:35:25;102319.13;;;12.51;61.93
49979;BME280;35869;50.990;6.962;2023-05-02T18:40:25;102314.97;;;12.44;60.54
49979;BME280;35869;50.990;6.962;2023-05-02T18:45:26;102317.91;;;12.32;60.52
49979;BME280;35869;50.990;6.962;2023-05-02T18:50:29;102324.91;;;12.30;62.07
49979;BME280;35869;50.990;6.962;2023-05-02T18:55:31;102323.41;;;12.19;65.35
49979;BME280;35869;50.990;6.962;2023-05-02T19:00:31;102330.63;;;12.10;67.76
49979;BME280;35869;50.990;6.962;2023-05-02T19:05:31;102337.84;;;11.98;64.20
49979;BME280;35869;50.990;6.962;2023-05-02T19:10:32;102340.66;;;11.91;63.72
49979;BME280;35869;50.990;6.962;2023-05-02T19:15:32;102345.13;;;11.84;62.84
49979;BME280;35869;50.990;6.962;2023-05-02T19:20:34;102355.59;;;11.83;64.90
49979;BME280;35869;50.990;6.962;2023-05-02T19:25:37;102363.00;;;11.61;61.91
49979;BME280;35869;50.990;6.962;2023-05-02T19:30:40;102382.59;;;11.38;63.08
49979;BME280;35869;50.990;6.962;2023-05-02T19:35:41;102392.00;;;11.45;66.32
49979;BME280;35869;50.990;6.962;2023-05-02T19:40:41;102398.22;;;11.37;65.60
49979;BME280;35869;50.990;6.962;2023-05-02T19:45:41;102397.72;;;11.19;65.51
49979;BME280;35869;50.990;6.962;2023-05-02T19:50:41;102407.19;;;11.24;69.57
49979;BME280;35869;50.990;6.962;2023-05-02T19:55:42;102402.19;;;11.13;67.37
49979;BME280;35869;50.990;6.962;2023-05-02T20:00:42;102399.19;;;10.88;66.75
49979;BME280;35869;50.990;6.962;2023-05-02T20:05:42;102412.38;;;10.79;66.93
49979;BME280;35869;50.990;6.962;2023-05-02T20:10:43;102417.66;;;10.74;68.56
49979;BME280;35869;50.990;6.962;2023-05-02T20:15:43;102416.75;;;10.77;71.11
49979;BME280;35869;50.990;6.962;2023-05-02T20:20:43;102418.63;;;10.68;71.48
49979;BME280;35869;50.990;6.962;2023-05-02T20:25:44;102422.97;;;10.66;71.73
49979;BME280;35869;50.990;6.962;2023-05-02T20:30:44;102433.63;;;10.53;74.71
49979;BME280;35869;50.990;6.962;2023-05-02T20:35:44;102445.13;;;10.39;72.75
49979;BME280;35869;50.990;6.962;2023-05-02T20:40:44;102445.25;;;10.32;73.38
49979;BME280;35869;50.990;6.962;2023-05-02T20:45:45;102447.91;;;10.26;73.40
49979;BME280;35869;50.990;6.962;2023-05-02T20:50:52;102449.06;;;10.05;72.48
49979;BME280;35869;50.990;6.962;2023-05-02T20:55:52;102446.41;;;10.09;73.57
49979;BME280;35869;50.990;6.962;2023-05-02T21:00:53;102450.72;;;10.10;73.66
49979;BME280;35869;50.990;6.962;2023-05-02T21:05:54;102458.72;;;9.95;73.74
49979;BME280;35869;50.990;6.962;2023-05-02T21:10:54;102449.31;;;9.88;74.78
49979;BME280;35869;50.990;6.962;2023-05-02T21:15:55;102457.28;;;9.74;75.51
49979;BME280;35869;50.990;6.962;2023-05-02T21:20:55;102453.84;;;9.72;76.32
49979;BME280;35869;50.990;6.962;2023-05-02T21:25:55;102448.78;;;9.63;75.69
49979;BME280;35869;50.990;6.962;2023-05-02T21:30:55;102463.59;;;9.53;76.86
49979;BME280;35869;50.990;6.962;2023-05-02T21:35:56;102457.72;;;9.39;77.27
49979;BME280;35869;50.990;6.962;2023-05-02T21:40:59;102464.66;;;9.35;76.71
49979;BME280;35869;50.990;6.962;2023-05-02T21:46:00;102463.06;;;9.24;77.30
49979;BME280;35869;50.990;6.962;2023-05-02T21:51:07;102462.38;;;9.10;74.92
49979;BME280;35869;50.990;6.962;2023-05-02T21:56:09;102477.16;;;8.97;73.35
49979;BME280;35869;50.990;6.962;2023-05-02T22:01:09;102479.72;;;9.04;74.09
49979;BME280;35869;50.990;6.962;2023-05-02T22:06:09;102482.41;;;8.94;76.08
49979;BME280;35869;50.990;6.962;2023-05-02T22:11:09;102492.03;;;8.78;75.64
49979;BME280;35869;50.990;6.962;2023-05-02T22:16:10;102483.38;;;8.79;74.83
49979;BME280;35869;50.990;6.962;2023-05-02T22:21:10;102477.34;;;8.78;77.26
49979;BME280;35869;50.990;6.962;2023-05-02T22:26:10;102495.53;;;8.75;77.09
49979;BME280;35869;50.990;6.962;2023-05-02T22:31:11;102505.03;;;8.73;77.85
49979;BME280;35869;50.990;6.962;2023-05-02T22:36:11;102509.38;;;8.74;78.40
49979;BME280;35869;50.990;6.962;2023-05-02T22:41:11;102502.47;;;8.67;78.00
49979;BME280;35869;50.990;6.962;2023-05-02T22:46:11;102507.72;;;8.60;77.99
49979;BME280;35869;50.990;6.962;2023-05-02T22:51:11;102506.91;;;8.56;78.87
49979;BME280;35869;50.990;6.962;2023-05-02T22:56:12;102510.44;;;8.46;78.73
49979;BME280;35869;50.990;6.962;2023-05-02T23:01:12;102495.81;;;8.36;79.51
49979;BME280;35869;50.990;6.962;2023-05-02T23:06:12;102488.91;;;8.30;79.47
49979;BME280;35869;50.990;6.962;2023-05-02T23:11:12;102503.69;;;8.16;80.28
49979;BME280;35869;50.990;6.962;2023-05-02T23:16:12;102487.31;;;8.08;79.63
49979;BME280;35869;50.990;6.962;2023-05-02T23:21:14;102489.03;;;8.09;80.52
49979;BME280;35869;50.990;6.962;2023-05-02T23:26:14;102492.53;;;8.05;80.14
49979;BME280;35869;50.990;6.962;2023-05-02T23:31:14;102494.28;;;7.96;79.90
49979;BME280;35869;50.990;6.962;2023-05-02T23:36:14;102490.84;;;7.93;80.37
49979;BME280;35869;50.990;6.962;2023-05-02T23:41:14;102491.75;;;7.84;80.75
49979;BME280;35869;50.990;6.962;2023-05-02T23:46:15;102495.22;;;7.77;81.17
49979;BME280;35869;50.990;6.962;2023-05-02T23:51:15;102483.19;;;7.70;81.48
49979;BME280;35869;50.990;6.962;2023-05-02T23:56:15;102495.28;;;7.65;81.28
